Time;durP1;ratioP1;P1;durP2;ratioP2;P2;SDS_P1;SDS_P2;PMS_P1;PMS_P2;Temp;Humidity;BMP_temperature;BMP_pressure;BME280_temperature;BME280_humidity;BME280_pressure;Samples;Min_cycle;Max_cycle;Signal;HPM_P1;HPM_P2
2022/01/12 00:02:04;;;;;;;;;59.33;41.00;;;;;4.22;73.00;103493.38;5060820;28;45777;-78
2022/01/12 00:04:29;;;;;;;;;58.67;41.67;;;;;4.29;72.58;103506.75;5066379;28;46290;-77
2022/01/12 00:06:54;;;;;;;;;60.00;40.33;;;;;4.28;74.04;103498.81;5072713;28;45300;-77
2022/01/12 00:09:20;;;;;;;;;57.00;42.33;;;;;4.11;72.86;103472.00;5051940;28;45328;-77
2022/01/12 00:11:45;;;;;;;;;69.33;44.00;;;;;4.25;73.24;103496.09;5073322;28;45494;-77
2022/01/12 00:14:10;;;;;;;;;59.33;39.33;;;;;4.21;73.88;103481.09;5055129;28;47275;-77
2022/01/12 00:16:36;;;;;;;;;64.00;44.67;;;;;4.18;73.71;103478.38;5075452;28;45858;-78
2022/01/12 00:19:02;;;;;;;;;64.00;44.67;;;;;4.27;73.92;103491.81;5073496;28;45526;-78
2022/01/12 00:21:27;;;;;;;;;49.00;41.33;;;;;4.41;74.15;103508.94;5074049;28;45641;-77
2022/01/12 00:23:53;;;;;;;;;52.33;42.00;;;;;4.42;73.79;103512.44;5071764;28;45477;-77
2022/01/12 00:34:38;;;;;;;;;62.33;45.33;;;;;4.36;73.40;103525.34;4982495;28;45789;-78
2022/01/12 00:37:03;;;;;;;;;59.00;46.00;;;;;4.24;74.06;103510.06;4993898;28;45444;-78
2022/01/12 00:39:29;;;;;;;;;59.00;43.00;;;;;4.33;74.93;103523.50;4990625;28;45592;-78
2022/01/12 00:41:54;;;;;;;;;65.33;42.00;;;;;4.21;74.32;103495.09;4994052;28;45516;-78
2022/01/12 00:44:25;;;;;;;;;55.00;43.67;;;;;4.38;74.49;103521.91;4991895;28;45739;-78
2022/01/12 00:46:52;;;;;;;;;66.33;45.67;;;;;4.43;74.10;103528.22;4992015;28;45539;-78
2022/01/12 00:49:18;;;;;;;;;56.33;42.67;;;;;4.37;74.13;103519.25;4992651;28;45391;-78
2022/01/12 00:51:43;;;;;;;;;60.67;42.33;;;;;4.00;74.39;103461.16;4992146;28;45411;-78
2022/01/12 00:54:09;;;;;;;;;70.67;44.33;;;;;4.32;74.53;103505.94;4991775;28;46152;-78
2022/01/12 00:56:35;;;;;;;;;65.00;46.00;;;;;4.41;73.62;103502.75;4990652;28;45509;-78
2022/01/12 00:59:01;;;;;;;;;64.67;46.00;;;;;4.36;74.53;103492.13;4974828;28;45382;-77
2022/01/12 01:01:27;;;;;;;;;63.33;47.00;;;;;4.40;73.66;103494.00;4991936;28;45451;-77
2022/01/12 01:03:53;;;;;;;;;69.33;43.00;;;;;4.25;74.20;103467.25;4992427;28;45937;-77
2022/01/12 01:06:20;;;;;;;;;71.67;51.00;;;;;4.38;74.17;103486.94;5031287;28;45685;-78
2022/01/12 01:08:48;;;;;;;;;62.33;46.00;;;;;4.36;74.80;103491.25;5062618;28;45420;-78
2022/01/12 01:11:14;;;;;;;;;65.33;44.33;;;;;4.29;74.18;103485.78;5063912;28;45514;-78
2022/01/12 01:13:48;;;;;;;;;61.33;46.00;;;;;4.28;74.48;103496.19;5054801;28;45961;-77
2022/01/12 01:16:23;;;;;;;;;58.33;42.00;;;;;4.29;74.89;103491.03;5073401;28;45318;-78
2022/01/12 01:27:01;;;;;;;;;60.67;45.33;;;;;4.37;73.95;103528.00;5072801;28;45505;-78
2022/01/12 01:29:27;;;;;;;;;72.00;51.00;;;;;4.25;74.70;103512.72;5062301;28;45617;-78
2022/01/12 01:31:53;;;;;;;;;65.00;45.00;;;;;4.10;73.65;103481.59;5073388;28;45475;-78
2022/01/12 01:34:19;;;;;;;;;66.33;49.00;;;;;4.26;74.29;103513.59;5069695;28;46147;-78
2022/01/12 01:36:50;;;;;;;;;63.67;46.67;;;;;4.28;73.96;103523.31;5066046;28;47841;-78
2022/01/12 01:39:19;;;;;;;;;60.00;48.33;;;;;4.33;75.02;103534.88;5067352;28;45380;-78
2022/01/12 01:42:00;;;;;;;;;51.33;41.00;;;;;4.18;74.34;103509.84;5054191;28;45622;-77
2022/01/12 01:55:15;;;;;;;;;65.67;44.00;;;;;4.36;73.57;103528.84;5076962;28;45930;-77
2022/01/12 01:57:41;;;;;;;;;62.00;46.33;;;;;4.28;74.69;103518.06;5076433;28;45546;-78
2022/01/12 02:00:11;;;;;;;;;60.33;46.00;;;;;4.23;74.76;103510.88;5074305;28;45415;-78
2022/01/12 02:02:36;;;;;;;;;66.00;41.00;;;;;4.25;74.56;103519.69;5063199;28;45421;-78
2022/01/12 02:05:02;;;;;;;;;60.33;45.00;;;;;4.20;74.25;103501.16;5075741;28;46114;-78
2022/01/12 02:07:27;;;;;;;;;61.00;43.67;;;;;4.22;74.61;103503.84;5073941;27;45404;-78
2022/01/12 02:09:53;;;;;;;;;57.00;47.33;;;;;4.32;74.92;103532.16;5051682;28;45512;-78
2022/01/12 02:12:29;;;;;;;;;61.33;40.33;;;;;4.17;75.04;103508.03;5045801;28;45736;-78
2022/01/12 02:14:58;;;;;;;;;64.67;46.33;;;;;4.32;74.16;103540.03;5066782;28;46015;-78
2022/01/12 02:17:37;;;;;;;;;66.67;45.00;;;;;4.29;73.78;103545.16;5054823;28;45319;-79
2022/01/12 02:36:24;;;;;;;;;73.33;48.33;;;;;4.15;74.27;103546.38;5074279;28;45411;-78
2022/01/12 02:41:34;;;;;;;;;72.67;53.00;;;;;4.17;74.99;103565.69;5075089;28;45623;-78
2022/01/12 02:54:44;;;;;;;;;65.67;49.33;;;;;4.22;75.07;103564.16;5071168;28;45206;-77
2022/01/12 02:57:10;;;;;;;;;40.33;38.33;;;;;4.27;75.16;103578.31;5050677;28;48059;-77
2022/01/12 02:59:36;;;;;;;;;66.67;45.67;;;;;4.28;74.74;103586.22;5051612;28;45412;-78
2022/01/12 03:04:28;;;;;;;;;65.67;52.00;;;;;4.33;75.00;103599.53;5066614;28;45443;-77
2022/01/12 03:07:03;;;;;;;;;75.33;50.00;;;;;4.38;75.12;103605.81;5073419;28;46702;-77
2022/01/12 03:09:28;;;;;;;;;71.00;50.33;;;;;4.25;74.70;103577.38;5073290;28;45347;-78
2022/01/12 03:11:54;;;;;;;;;73.00;50.00;;;;;4.33;73.96;103596.91;5065436;28;45776;-77
2022/01/12 03:14:19;;;;;;;;;63.67;47.33;;;;;3.87;75.97;103524.41;5074520;28;45799;-77
2022/01/12 03:16:44;;;;;;;;;71.33;47.33;;;;;4.27;74.75;103584.44;5073320;28;45501;-77
2022/01/12 03:19:10;;;;;;;;;57.67;44.33;;;;;4.27;75.59;103580.94;5075230;28;45387;-76
2022/01/12 03:21:35;;;;;;;;;67.00;50.33;;;;;4.24;75.37;103575.59;5074859;28;45775;-77
2022/01/12 03:24:03;;;;;;;;;75.00;44.00;;;;;4.35;75.10;103596.94;5074989;28;45591;-77
2022/01/12 03:26:31;;;;;;;;;51.67;38.33;;;;;4.32;75.71;103592.47;5056146;28;48268;-77
2022/01/12 03:28:57;;;;;;;;;60.67;46.33;;;;;4.38;75.20;103595.31;5063324;28;45705;-77
2022/01/12 03:31:29;;;;;;;;;63.67;48.33;;;;;4.21;75.14;103573.75;5073646;28;45535;-77
2022/01/12 03:34:04;;;;;;;;;64.67;45.67;;;;;4.39;74.66;103602.38;5045819;28;45510;-77
2022/01/12 03:39:05;;;;;;;;;66.67;50.00;;;;;4.22;75.37;103574.63;5071330;28;45470;-78
2022/01/12 03:41:34;;;;;;;;;62.67;47.67;;;;;4.23;75.76;103584.25;5074020;28;45490;-77
2022/01/12 03:44:02;;;;;;;;;70.00;47.00;;;;;4.30;76.12;103589.81;5056004;28;45337;-76
2022/01/12 03:46:38;;;;;;;;;58.00;42.00;;;;;4.38;75.04;103600.56;5075344;28;45759;-77
2022/01/12 03:49:04;;;;;;;;;65.33;47.33;;;;;4.19;76.14;103567.53;5074045;28;45568;-77
2022/01/12 03:51:29;;;;;;;;;66.00;44.67;;;;;4.41;75.88;103608.56;5074878;28;45413;-77
2022/01/12 03:53:55;;;;;;;;;62.00;48.00;;;;;4.28;75.59;103595.81;5050054;28;45429;-77
2022/01/12 03:56:20;;;;;;;;;74.67;52.00;;;;;4.29;75.95;103597.59;5074617;28;45335;-78
2022/01/12 03:58:46;;;;;;;;;60.33;44.33;;;;;4.45;74.88;103620.94;5072589;28;45338;-78
2022/01/12 04:01:11;;;;;;;;;64.33;46.00;;;;;4.46;76.07;103621.84;5069613;28;45688;-77
2022/01/12 04:03:43;;;;;;;;;64.67;43.33;;;;;4.46;74.86;103614.84;5069816;28;45448;-77
2022/01/12 04:08:53;;;;;;;;;60.33;44.33;;;;;4.44;75.95;103616.56;5073768;28;45563;-77
2022/01/12 04:11:19;;;;;;;;;62.00;46.00;;;;;4.30;76.00;103592.44;5074153;28;45390;-77
2022/01/12 04:13:47;;;;;;;;;72.33;49.00;;;;;4.47;75.69;103615.75;5073143;28;45590;-79
2022/01/12 04:16:13;;;;;;;;;63.33;48.67;;;;;4.32;75.89;103600.34;5057760;28;48284;-77
2022/01/12 04:18:39;;;;;;;;;62.67;46.00;;;;;4.41;75.93;103605.03;5071307;28;45436;-77
2022/01/12 04:21:07;;;;;;;;;59.33;49.00;;;;;4.33;75.47;103596.91;5074050;28;45394;-77
2022/01/12 04:23:35;;;;;;;;;63.00;46.33;;;;;4.52;75.95;103617.69;5073478;28;45418;-78
2022/01/12 04:26:02;;;;;;;;;63.00;48.33;;;;;4.23;76.15;103568.53;5073956;28;45504;-78
2022/01/12 04:28:29;;;;;;;;;67.67;47.67;;;;;4.53;75.60;103609.03;5074978;28;45395;-77
2022/01/12 04:30:57;;;;;;;;;60.33;45.00;;;;;4.54;75.54;103610.78;5073575;28;45565;-77
2022/01/12 04:33:23;;;;;;;;;61.33;46.33;;;;;4.52;75.88;103612.47;5050605;28;45523;-78
2022/01/12 04:35:54;;;;;;;;;62.67;46.00;;;;;4.53;76.01;103603.78;5056196;28;46165;-77
2022/01/12 04:38:22;;;;;;;;;64.67;46.00;;;;;4.53;76.48;103609.03;5073575;28;45360;-77
2022/01/12 04:40:48;;;;;;;;;64.33;46.00;;;;;4.46;74.95;103595.63;5042077;28;45292;-77
2022/01/12 04:43:14;;;;;;;;;60.00;46.00;;;;;4.55;75.57;103602.06;5054422;28;45561;-77
2022/01/12 04:50:45;;;;;;;;;64.00;49.00;;;;;4.56;76.28;103597.75;5051940;28;45407;-78
2022/01/12 04:53:13;;;;;;;;;67.67;44.33;;;;;4.48;75.80;103597.47;5052845;28;45483;-78
2022/01/12 04:55:39;;;;;;;;;63.00;45.00;;;;;4.58;76.35;103614.41;5053845;28;46167;-78
2022/01/12 04:58:05;;;;;;;;;65.33;46.00;;;;;4.61;75.50;103611.00;5053270;28;45489;-78
2022/01/12 05:00:32;;;;;;;;;66.67;49.00;;;;;4.55;76.29;103596.84;5053753;28;45473;-78
2022/01/12 05:13:38;;;;;;;;;70.67;43.67;;;;;4.63;76.12;103619.84;5052523;28;45404;-78
2022/01/12 05:16:04;;;;;;;;;66.33;47.33;;;;;4.63;75.74;103609.34;5033067;28;47654;-79
2022/01/12 05:18:32;;;;;;;;;57.67;44.67;;;;;4.60;75.82;103601.38;5051697;28;45415;-79
2022/01/12 05:20:58;;;;;;;;;60.67;44.67;;;;;4.51;76.14;103600.19;5052344;28;45692;-79
2022/01/12 05:23:24;;;;;;;;;65.67;50.00;;;;;4.46;76.45;103590.38;5053243;28;45441;-78
2022/01/12 05:25:52;;;;;;;;;60.00;45.33;;;;;4.65;75.51;103628.66;5054191;28;45988;-78
2022/01/12 05:28:22;;;;;;;;;66.00;48.00;;;;;4.64;75.53;103634.72;5038556;28;45639;-78
2022/01/12 05:30:48;;;;;;;;;63.00;48.00;;;;;4.61;75.88;103627.63;5031958;28;45454;-78
2022/01/12 05:33:16;;;;;;;;;62.00;44.00;;;;;4.59;76.26;103615.31;5028915;28;45647;-78
2022/01/12 05:35:42;;;;;;;;;70.00;44.33;;;;;4.70;75.58;103638.47;5056142;28;46115;-77
2022/01/12 05:38:10;;;;;;;;;67.67;45.67;;;;;4.46;75.65;103591.25;5057607;28;45241;-77
2022/01/12 05:40:36;;;;;;;;;65.00;48.33;;;;;4.63;75.98;103618.09;5073376;28;44857;-77
2022/01/12 05:43:02;;;;;;;;;63.67;45.00;;;;;4.65;76.73;103607.69;5082842;28;45519;-77
2022/01/12 05:45:32;;;;;;;;;60.67;43.00;;;;;4.61;75.66;103603.16;5083759;28;46200;-76
2022/01/12 05:50:24;;;;;;;;;57.67;45.33;;;;;4.76;74.98;103628.22;5076664;28;49524;-78
2022/01/12 05:52:50;;;;;;;;;57.33;43.00;;;;;4.77;76.61;103629.09;5075122;28;45647;-78
2022/01/12 05:55:15;;;;;;;;;64.00;43.33;;;;;4.76;75.87;103632.53;5076617;28;47132;-78
2022/01/12 05:57:41;;;;;;;;;66.00;45.00;;;;;4.69;75.78;103628.81;5076093;28;45513;-78
2022/01/12 06:00:10;;;;;;;;;67.00;48.33;;;;;4.70;76.35;103620.09;5075936;28;45502;-77
2022/01/12 06:02:36;;;;;;;;;64.00;45.33;;;;;4.72;75.98;103622.78;5065871;28;45496;-78
2022/01/12 06:05:03;;;;;;;;;45.00;39.67;;;;;4.74;75.47;103637.75;5076639;28;45426;-78
2022/01/12 06:07:28;;;;;;;;;69.00;48.00;;;;;4.68;76.13;103629.66;5055319;28;45361;-78
2022/01/12 06:09:54;;;;;;;;;57.67;44.33;;;;;4.76;76.81;103643.03;5074806;28;54152;-79
2022/01/12 06:12:19;;;;;;;;;69.67;49.67;;;;;4.78;76.35;103651.88;5075479;28;45475;-77
2022/01/12 06:14:45;;;;;;;;;71.00;48.00;;;;;4.79;76.12;103653.66;5075823;28;45620;-77
2022/01/12 06:17:11;;;;;;;;;58.33;45.33;;;;;4.80;76.44;103654.56;5073822;28;45556;-78
2022/01/12 06:19:37;;;;;;;;;65.00;45.33;;;;;4.81;76.33;103662.47;5077241;28;45331;-77
2022/01/12 06:22:03;;;;;;;;;62.33;46.67;;;;;4.83;76.67;103655.56;5076082;28;45673;-76
2022/01/12 06:24:28;;;;;;;;;65.00;43.00;;;;;4.85;77.26;103658.22;5057285;28;47312;-77
2022/01/12 06:26:55;;;;;;;;;62.33;48.67;;;;;4.70;75.88;103633.22;5075340;28;45608;-78
2022/01/12 06:31:49;;;;;;;;;69.33;47.33;;;;;4.89;76.57;103658.41;5075854;28;45347;-77
2022/01/12 06:34:14;;;;;;;;;61.00;44.67;;;;;4.76;76.77;103635.16;5076898;28;45587;-77
2022/01/12 06:36:40;;;;;;;;;67.33;47.67;;;;;4.80;76.99;103636.19;5074834;28;45419;-77
2022/01/12 06:39:09;;;;;;;;;62.33;44.67;;;;;4.91;76.15;103667.25;5074128;28;45482;-78
2022/01/12 06:41:36;;;;;;;;;53.00;45.00;;;;;4.81;76.11;103651.09;5075121;28;45422;-77
2022/01/12 06:44:02;;;;;;;;;72.33;49.33;;;;;4.78;76.23;103651.88;5074212;28;48178;-78
2022/01/12 06:46:30;;;;;;;;;58.00;46.67;;;;;4.87;76.09;103669.69;5071584;27;45458;-78
2022/01/12 06:48:55;;;;;;;;;63.00;46.00;;;;;4.77;76.05;103660.59;5075447;28;45604;-77
2022/01/12 06:51:20;;;;;;;;;74.00;49.33;;;;;4.75;76.40;103654.38;5075333;28;45596;-78
2022/01/12 06:53:46;;;;;;;;;64.00;46.33;;;;;4.57;76.62;103619.63;5073997;28;46244;-78
2022/01/12 06:56:15;;;;;;;;;66.67;48.67;;;;;4.96;76.25;103685.75;5056607;28;45657;-77
2022/01/12 06:58:41;;;;;;;;;58.67;46.33;;;;;4.97;75.98;103684.91;5062012;28;45525;-78
2022/01/12 07:01:06;;;;;;;;;60.67;44.67;;;;;4.99;77.42;103701.63;5075573;28;45653;-78
2022/01/12 07:03:32;;;;;;;;;65.00;47.33;;;;;4.94;76.64;103703.16;5054890;28;48513;-78
2022/01/12 07:05:58;;;;;;;;;66.00;45.00;;;;;4.99;76.84;103720.00;5075073;28;45722;-78
2022/01/12 07:08:23;;;;;;;;;69.33;46.00;;;;;5.00;76.83;103717.44;5075329;28;45780;-78
2022/01/12 07:10:48;;;;;;;;;62.00;47.00;;;;;5.02;76.52;103714.84;5075136;28;45651;-78
2022/01/12 07:13:14;;;;;;;;;66.00;42.33;;;;;5.04;76.39;103721.06;5055957;28;47015;-78
2022/01/12 07:15:43;;;;;;;;;69.00;51.67;;;;;5.06;76.79;103721.09;5051384;28;45765;-77
2022/01/12 07:18:09;;;;;;;;;78.00;47.33;;;;;5.06;77.22;103726.34;5049860;28;45463;-77
2022/01/12 07:20:34;;;;;;;;;70.00;49.67;;;;;4.93;76.82;103702.28;5074230;28;45557;-77
2022/01/12 07:23:00;;;;;;;;;67.67;48.33;;;;;5.09;76.83;103723.81;5066343;28;45369;-77
2022/01/12 07:25:25;;;;;;;;;65.00;49.00;;;;;4.95;76.29;103708.50;5075357;28;45415;-79
2022/01/12 07:27:51;;;;;;;;;66.00;49.33;;;;;4.83;76.51;103692.31;5056397;28;45445;-80
2022/01/12 07:30:17;;;;;;;;;75.00;49.67;;;;;4.84;76.80;103688.81;5072872;28;45428;-78
2022/01/12 07:32:43;;;;;;;;;72.67;54.00;;;;;5.05;77.07;103728.09;5065708;27;46091;-76
2022/01/12 07:35:09;;;;;;;;;65.67;50.33;;;;;5.05;76.71;103730.72;5072588;28;53934;-78
2022/01/12 07:37:34;;;;;;;;;72.67;52.33;;;;;5.13;76.81;103752.00;5066473;28;45521;-78
2022/01/12 07:40:00;;;;;;;;;76.33;53.67;;;;;5.02;77.65;103727.97;5069313;28;45375;-80
2022/01/12 07:42:25;;;;;;;;;68.00;49.67;;;;;5.08;76.67;103738.69;5073625;28;48253;-79
2022/01/12 07:44:58;;;;;;;;;65.67;49.67;;;;;4.91;76.75;103701.34;5055626;28;45367;-79
2022/01/12 07:47:25;;;;;;;;;62.00;45.00;;;;;5.19;76.74;103753.09;5072089;28;45493;-78
2022/01/12 07:49:50;;;;;;;;;69.67;45.00;;;;;5.19;76.99;103760.97;5070306;28;45423;-80
2022/01/12 07:52:16;;;;;;;;;63.67;48.00;;;;;5.20;77.33;103769.75;5070403;28;45747;-78
2022/01/12 07:54:41;;;;;;;;;76.00;52.33;;;;;5.17;76.44;103762.66;5055069;28;45678;-79
2022/01/12 07:57:06;;;;;;;;;69.67;49.67;;;;;5.23;77.52;103769.84;5070269;28;45415;-79
2022/01/12 07:59:32;;;;;;;;;65.67;49.33;;;;;5.10;77.28;103744.00;5064996;28;45569;-79
2022/01/12 08:01:57;;;;;;;;;63.33;47.33;;;;;5.29;76.70;103777.97;5066904;28;45403;-79
2022/01/12 08:04:22;;;;;;;;;72.00;50.33;;;;;5.12;77.74;103752.84;5056621;28;45517;-81
2022/01/12 08:06:48;;;;;;;;;62.67;46.67;;;;;5.08;77.41;103753.56;5053910;28;45717;-81
2022/01/12 08:09:13;;;;;;;;;65.67;52.00;;;;;5.13;76.74;103762.50;5069228;28;45507;-81
2022/01/12 08:11:38;;;;;;;;;65.67;42.33;;;;;5.18;77.03;103774.97;5069880;28;45479;-81
2022/01/12 08:14:04;;;;;;;;;68.67;49.33;;;;;5.31;77.01;103799.94;5073506;28;45446;-81
2022/01/12 08:16:29;;;;;;;;;61.00;42.33;;;;;5.27;77.34;103786.66;5071705;28;45455;-81
2022/01/12 08:18:56;;;;;;;;;69.67;48.00;;;;;5.27;77.00;103784.91;5050945;28;45464;-81
2022/01/12 08:21:21;;;;;;;;;66.33;48.33;;;;;5.17;77.44;103769.63;5063862;28;45427;-82
2022/01/12 08:23:47;;;;;;;;;71.00;50.00;;;;;5.16;77.61;103771.38;5070866;28;45485;-80
2022/01/12 08:26:13;;;;;;;;;70.33;48.67;;;;;5.34;77.29;103802.66;5054723;28;45544;-80
2022/01/12 08:28:39;;;;;;;;;76.67;54.33;;;;;5.13;77.62;103757.25;5074681;28;45331;-80
2022/01/12 08:31:04;;;;;;;;;59.00;47.00;;;;;5.38;77.79;103801.03;5071803;28;46222;-80
2022/01/12 08:33:30;;;;;;;;;70.33;46.00;;;;;5.29;77.07;103790.19;5049956;28;45234;-80
2022/01/12 08:35:55;;;;;;;;;71.67;55.00;;;;;5.28;77.44;103788.41;5067643;28;45648;-78
2022/01/12 08:38:21;;;;;;;;;57.00;44.00;;;;;4.97;77.65;103733.06;5071592;28;45299;-80
2022/01/12 08:40:47;;;;;;;;;80.33;52.67;;;;;5.28;77.36;103785.78;5069053;28;46217;-79
2022/01/12 08:43:13;;;;;;;;;56.00;38.67;;;;;5.32;77.76;103788.56;5067244;28;45511;-78
2022/01/12 08:45:39;;;;;;;;;70.00;49.00;;;;;5.43;77.60;103818.75;5053785;28;45459;-79
2022/01/12 08:48:04;;;;;;;;;69.67;49.33;;;;;5.44;77.90;103820.56;5070458;27;45415;-79
2022/01/12 08:50:29;;;;;;;;;67.33;49.00;;;;;5.46;77.38;103817.97;5068032;28;46124;-79
2022/01/12 08:52:55;;;;;;;;;66.33;50.33;;;;;5.53;76.99;103821.69;5071120;28;45514;-80
2022/01/12 08:55:22;;;;;;;;;68.00;51.33;;;;;5.31;77.15;103784.16;5071703;28;45479;-78
2022/01/12 08:57:48;;;;;;;;;68.33;50.33;;;;;5.40;77.04;103802.00;5063343;28;45572;-80
2022/01/12 09:00:15;;;;;;;;;73.00;53.00;;;;;5.54;76.34;103832.28;5064622;28;45633;-79
2022/01/12 09:02:40;;;;;;;;;70.00;52.00;;;;;5.51;77.28;103833.91;5070783;28;45475;-80
2022/01/12 09:05:06;;;;;;;;;73.33;52.00;;;;;5.48;77.17;103829.44;5052757;28;45422;-80
2022/01/12 09:07:32;;;;;;;;;75.00;54.33;;;;;5.59;77.18;103853.44;5074560;28;45352;-80
2022/01/12 09:09:57;;;;;;;;;68.33;48.67;;;;;5.55;77.81;103854.19;5066560;28;46173;-80
2022/01/12 09:12:23;;;;;;;;;74.00;57.33;;;;;5.62;77.89;103866.72;5059591;28;45486;-81
2022/01/12 09:14:50;;;;;;;;;74.33;53.33;;;;;5.63;77.30;103872.03;5048673;28;45457;-80
2022/01/12 09:17:19;;;;;;;;;68.00;52.00;;;;;5.48;77.96;103845.19;5066370;28;45420;-80
2022/01/12 09:19:48;;;;;;;;;74.00;53.00;;;;;5.55;77.42;103855.06;5053718;28;46802;-80
2022/01/12 09:22:14;;;;;;;;;73.33;52.33;;;;;5.64;77.12;103878.16;5051532;28;45439;-80
2022/01/12 09:24:42;;;;;;;;;79.67;54.67;;;;;5.69;77.58;103885.38;5070958;28;45871;-80
2022/01/12 09:27:07;;;;;;;;;87.67;62.33;;;;;5.67;77.15;103886.16;5067984;28;45534;-79
2022/01/12 09:29:33;;;;;;;;;73.00;55.00;;;;;5.73;78.34;103881.13;5072692;28;47432;-79
2022/01/12 09:31:58;;;;;;;;;81.33;56.33;;;;;5.70;77.61;103874.00;5072785;28;45462;-80
2022/01/12 09:34:23;;;;;;;;;71.00;54.00;;;;;5.79;77.30;103878.72;5069218;28;45355;-78
2022/01/12 09:36:49;;;;;;;;;75.00;55.67;;;;;5.58;77.69;103844.69;5064354;28;45749;-77
2022/01/12 09:39:14;;;;;;;;;80.00;54.33;;;;;5.72;78.25;103868.84;5053801;28;48166;-77
2022/01/12 09:41:40;;;;;;;;;77.33;52.00;;;;;5.65;78.66;103857.22;5069161;28;45493;-78
2022/01/12 09:44:06;;;;;;;;;76.67;55.67;;;;;5.90;77.90;103884.34;5070626;28;45416;-77
2022/01/12 09:46:31;;;;;;;;;67.67;53.33;;;;;5.94;77.76;103893.28;5069747;28;45448;-78
2022/01/12 09:48:59;;;;;;;;;74.67;53.67;;;;;5.85;78.72;103878.97;5061382;28;46138;-74
2022/01/12 09:51:25;;;;;;;;;74.33;54.33;;;;;5.85;77.98;103881.59;5064618;28;45483;-77
2022/01/12 09:53:50;;;;;;;;;76.00;51.33;;;;;5.79;77.39;103867.31;5071999;28;45547;-77
2022/01/12 09:56:22;;;;;;;;;78.00;56.00;;;;;6.02;77.89;103910.22;5040717;28;45326;-77
2022/01/12 09:58:54;;;;;;;;;70.67;48.00;;;;;5.91;77.85;103897.56;5057277;28;45628;-77
2022/01/12 10:01:31;;;;;;;;;86.00;56.00;;;;;6.06;78.67;103918.28;5039738;28;45312;-77
2022/01/12 10:04:18;;;;;;;;;75.00;51.00;;;;;6.11;77.96;103926.31;5065246;28;51113;-77
2022/01/12 10:06:49;;;;;;;;;74.33;54.33;;;;;5.96;78.24;103899.50;5051314;28;45511;-77
2022/01/12 10:09:16;;;;;;;;;66.33;46.33;;;;;6.11;78.88;103913.16;5073426;28;45985;-77
2022/01/12 10:11:50;;;;;;;;;80.33;56.00;;;;;6.14;78.30;103915.91;5072001;28;46203;-77
2022/01/12 10:14:16;;;;;;;;;73.33;49.67;;;;;6.23;78.55;103933.75;5062459;28;45525;-77
2022/01/12 10:17:01;;;;;;;;;68.00;50.00;;;;;6.20;78.88;103928.38;5077456;28;45365;-77
2022/01/12 10:19:32;;;;;;;;;74.33;53.67;;;;;6.30;79.33;103938.38;5076045;28;45548;-77
2022/01/12 10:21:59;;;;;;;;;70.00;49.33;;;;;6.19;78.70;103919.59;5075729;28;45503;-78
2022/01/12 10:24:26;;;;;;;;;68.00;50.33;;;;;6.41;79.45;103954.53;5075432;28;45390;-77
2022/01/12 10:26:53;;;;;;;;;64.00;43.75;;;;;6.27;78.93;103928.66;5075221;28;45494;-76
2022/01/12 10:29:21;;;;;;;;;64.00;42.50;;;;;6.47;78.47;103953.03;5074837;28;46127;-77
2022/01/12 10:31:54;;;;;;;;;66.75;44.25;;;;;6.24;78.84;103898.72;5056138;28;45433;-77
2022/01/12 10:34:38;;;;;;;;;66.50;41.00;;;;;6.30;79.23;103910.34;5074344;28;45494;-78
2022/01/12 10:37:17;;;;;;;;;64.75;45.50;;;;;6.47;78.27;103928.41;5075119;28;45603;-77
2022/01/12 10:39:45;;;;;;;;;63.25;43.75;;;;;6.46;78.99;103922.28;5053626;28;47241;-78
2022/01/12 10:42:13;;;;;;;;;61.75;41.25;;;;;6.61;78.84;103932.41;5049654;28;45399;-77
2022/01/12 10:44:43;;;;;;;;;65.75;46.00;;;;;6.49;78.55;103911.84;5075278;28;45599;-78
2022/01/12 10:47:11;;;;;;;;;59.75;41.00;;;;;6.66;79.01;103927.31;5058995;28;45569;-77
2022/01/12 10:49:38;;;;;;;;;69.25;46.25;;;;;6.67;78.61;103929.97;5071796;28;46292;-77
2022/01/12 10:52:08;;;;;;;;;64.25;43.25;;;;;6.46;78.67;103879.28;5056207;28;46076;-77
2022/01/12 10:54:45;;;;;;;;;63.50;47.00;;;;;6.55;78.75;103882.22;5054180;28;45495;-78
2022/01/12 10:57:18;;;;;;;;;55.00;43.50;;;;;6.61;78.49;103882.41;5053083;28;45575;-78
2022/01/12 10:59:47;;;;;;;;;63.75;46.00;;;;;6.62;79.28;103878.97;5063648;28;46080;-78
2022/01/12 11:02:13;;;;;;;;;60.50;42.75;;;;;6.71;78.31;103894.16;5074393;28;45594;-78
2022/01/12 11:04:41;;;;;;;;;68.25;47.00;;;;;6.84;78.75;103912.09;5075077;28;45306;-78
2022/01/12 11:07:06;;;;;;;;;52.75;41.00;;;;;6.61;79.13;103871.88;5075985;28;50535;-78
2022/01/12 11:09:32;;;;;;;;;61.75;47.75;;;;;6.87;78.36;103911.31;5073399;28;46242;-80
2022/01/12 11:11:57;;;;;;;;;68.00;45.00;;;;;6.81;78.66;103907.63;5074281;28;45532;-81
2022/01/12 11:14:23;;;;;;;;;72.00;45.75;;;;;6.82;78.65;103903.25;5064589;27;45578;-81
2022/01/12 11:16:48;;;;;;;;;56.00;40.50;;;;;6.93;78.77;103928.19;5073233;28;45437;-81
2022/01/12 11:19:15;;;;;;;;;191.50;145.00;;;;;6.85;78.50;103891.94;5062460;28;45430;-81
2022/01/12 11:21:47;;;;;;;;;62.75;45.00;;;;;6.85;78.74;103886.66;5064253;28;45470;-82
2022/01/12 11:24:14;;;;;;;;;62.75;43.50;;;;;6.43;79.05;103810.78;5050828;28;45532;-81
2022/01/12 11:26:51;;;;;;;;;69.25;47.50;;;;;7.02;78.88;103915.31;5073873;28;45304;-84
2022/01/12 11:29:28;;;;;;;;;69.67;48.00;;;;;6.97;78.46;103902.84;5061790;28;45478;-84
2022/01/12 11:32:12;;;;;;;;;71.25;45.50;;;;;7.09;78.63;103919.06;5075045;28;45424;-81
2022/01/12 11:34:38;;;;;;;;;72.00;49.75;;;;;7.05;77.94;103907.50;5071632;28;45874;-82
2022/01/12 11:37:15;;;;;;;;;68.25;49.50;;;;;6.97;78.79;103901.13;5053856;28;45372;-82
2022/01/12 11:39:40;;;;;;;;;66.50;46.00;;;;;6.86;78.77;103872.69;5065201;28;46770;-83
2022/01/12 11:42:06;;;;;;;;;62.00;44.75;;;;;7.00;78.26;103887.13;5067010;28;45462;-78
2022/01/12 11:44:36;;;;;;;;;66.00;48.75;;;;;7.02;78.39;103880.19;5074029;28;45382;-79
2022/01/12 11:47:04;;;;;;;;;67.00;50.75;;;;;7.22;78.65;103910.66;5057995;28;48169;-78
2022/01/12 11:49:32;;;;;;;;;74.00;47.25;;;;;7.23;78.74;103915.06;5070764;28;45473;-77
2022/01/12 11:51:59;;;;;;;;;76.00;54.33;;;;;7.26;78.61;103917.84;5072248;28;45472;-79
2022/01/12 11:54:33;;;;;;;;;69.33;50.00;;;;;7.28;78.48;103915.22;5073819;28;45378;-79
2022/01/12 11:57:10;;;;;;;;;76.00;54.75;;;;;7.12;78.60;103884.00;5074184;28;45359;-80
2022/01/12 11:59:56;;;;;;;;;75.00;51.33;;;;;6.87;78.44;103845.50;5073570;28;45482;-80
2022/01/12 12:02:33;;;;;;;;;77.25;54.50;;;;;7.30;78.54;103907.38;5059794;28;45570;-80
2022/01/12 12:05:01;;;;;;;;;77.33;53.00;;;;;7.30;78.48;103897.72;5073820;28;45572;-81
2022/01/12 12:07:27;;;;;;;;;69.67;51.67;;;;;7.41;78.21;103905.94;5075377;28;45489;-80
2022/01/12 12:09:57;;;;;;;;;71.75;47.75;;;;;7.43;78.12;103914.78;5074125;28;45983;-77
2022/01/12 12:12:26;;;;;;;;;68.75;49.75;;;;;7.45;77.97;103914.00;5072004;28;45420;-83
2022/01/12 12:14:54;;;;;;;;;67.00;51.50;;;;;7.34;77.99;103903.97;5064031;28;45494;-85
2022/01/12 12:17:22;;;;;;;;;69.50;49.75;;;;;7.18;78.30;103861.38;5074585;28;45460;-91
2022/01/12 12:19:48;;;;;;;;;75.75;49.75;;;;;7.48;78.64;103907.91;5073910;28;45362;-82
2022/01/12 12:22:16;;;;;;;;;60.25;43.25;;;;;7.39;78.41;103902.38;5075168;28;45318;-84
2022/01/12 12:24:43;;;;;;;;;79.67;58.33;;;;;7.28;78.75;103878.34;5073996;28;45501;-77
2022/01/12 12:27:10;;;;;;;;;63.00;47.75;;;;;7.58;78.19;103919.63;5072086;28;45472;-77
2022/01/12 12:29:37;;;;;;;;;59.00;44.75;;;;;7.37;78.03;103883.88;5072130;28;45817;-78
2022/01/12 12:32:03;;;;;;;;;58.25;41.50;;;;;7.60;77.99;103916.19;5072352;28;45379;-78
2022/01/12 12:34:30;;;;;;;;;65.00;47.50;;;;;7.62;78.04;103911.84;5073788;28;45278;-78
2022/01/12 12:37:02;;;;;;;;;57.25;41.50;;;;;7.65;78.39;103911.94;5067000;28;45394;-78
2022/01/12 12:39:30;;;;;;;;;62.50;44.25;;;;;7.62;78.36;103897.78;5050582;28;46892;-79
2022/01/12 12:41:55;;;;;;;;;58.50;42.50;;;;;7.53;78.50;103885.22;5072776;28;45377;-77
2022/01/12 12:44:26;;;;;;;;;67.50;46.00;;;;;7.55;78.16;103880.88;5054939;28;45522;-81